Time;durP1;ratioP1;P1;durP2;ratioP2;P2;SDS_P1;SDS_P2;PMS_P1;PMS_P2;Temp;Humidity;BMP_temperature;BMP_pressure;BME280_temperature;BME280_humidity;BME280_pressure;Samples;Min_cycle;Max_cycle;Signal;HPM_P1;HPM_P2
2023/11/13 00:02:10;;;;;;;12.10;6.55;;;6.70;99.90;;;;;;5033407;28;20532;-40
2023/11/13 00:04:36;;;;;;;13.23;6.72;;;6.80;99.90;;;;;;5033436;28;20437;-41
2023/11/13 00:07:03;;;;;;;16.25;7.53;;;6.90;99.90;;;;;;5032969;28;20032;-40
2023/11/13 00:09:29;;;;;;;15.90;6.63;;;6.90;99.90;;;;;;5033284;28;20112;-42
2023/11/13 00:11:55;;;;;;;15.18;6.53;;;6.80;99.90;;;;;;5033047;28;20036;-38
2023/11/13 00:14:21;;;;;;;12.13;7.60;;;6.80;99.90;;;;;;5033212;28;20485;-37
2023/11/13 00:16:46;;;;;;;17.58;7.50;;;6.70;99.90;;;;;;5033084;28;20033;-37
2023/11/13 00:19:12;;;;;;;13.93;6.97;;;6.70;99.90;;;;;;5032988;28;20026;-39
2023/11/13 00:21:38;;;;;;;20.77;7.18;;;6.70;99.90;;;;;;5033346;28;20053;-41
2023/11/13 00:24:06;;;;;;;13.00;6.40;;;6.70;99.90;;;;;;5032985;28;20079;-39
2023/11/13 00:26:32;;;;;;;18.33;7.40;;;6.70;99.90;;;;;;5031885;28;20493;-41
2023/11/13 00:28:58;;;;;;;20.58;7.32;;;6.70;99.90;;;;;;5032531;28;20021;-40
2023/11/13 00:31:24;;;;;;;15.75;7.35;;;6.70;99.90;;;;;;5032801;28;20490;-42
2023/11/13 00:33:50;;;;;;;13.25;6.25;;;6.70;99.90;;;;;;5032906;28;20083;-40
2023/11/13 00:36:16;;;;;;;13.18;6.43;;;6.60;99.90;;;;;;5032830;28;20394;-41
2023/11/13 00:38:42;;;;;;;14.85;6.53;;;6.60;99.90;;;;;;5032739;28;20052;-42
2023/11/13 00:41:11;;;;;;;11.02;6.35;;;6.60;99.90;;;;;;5032825;28;20453;-39
2023/11/13 00:43:37;;;;;;;10.18;6.55;;;6.70;99.90;;;;;;5032725;28;20033;-39
2023/11/13 00:46:03;;;;;;;10.30;6.15;;;6.60;99.90;;;;;;5032443;28;20079;-39
2023/11/13 00:48:29;;;;;;;16.58;6.90;;;6.70;99.90;;;;;;5032646;28;20125;-38
2023/11/13 00:50:55;;;;;;;13.07;6.43;;;6.70;99.90;;;;;;5032495;28;20143;-40
2023/11/13 00:53:21;;;;;;;9.82;5.57;;;6.70;99.90;;;;;;5046359;28;20112;-38
2023/11/13 00:55:46;;;;;;;9.68;6.05;;;6.80;99.90;;;;;;5036130;28;20041;-38
2023/11/13 00:58:12;;;;;;;12.02;6.50;;;6.80;99.90;;;;;;5032545;28;20389;-39
2023/11/13 01:00:38;;;;;;;16.48;6.78;;;6.90;99.90;;;;;;5032587;28;20026;-38
2023/11/13 01:03:04;;;;;;;10.43;5.88;;;6.80;99.90;;;;;;5032349;28;20032;-40
2023/11/13 01:05:30;;;;;;;11.32;5.80;;;6.80;99.90;;;;;;5032798;28;20548;-40
2023/11/13 01:07:56;;;;;;;9.75;5.32;;;6.80;99.90;;;;;;5014930;28;20104;-44
2023/11/13 01:10:22;;;;;;;14.85;5.97;;;6.80;99.90;;;;;;5031369;28;20438;-39
2023/11/13 01:12:47;;;;;;;12.70;6.45;;;6.70;99.90;;;;;;5032501;28;20520;-39
2023/11/13 01:15:13;;;;;;;9.82;5.75;;;6.70;99.90;;;;;;5032483;28;20116;-38
2023/11/13 01:17:39;;;;;;;10.50;6.03;;;6.70;99.90;;;;;;5032438;28;20024;-44
2023/11/13 01:20:06;;;;;;;13.90;5.35;;;6.70;99.90;;;;;;5032063;28;20116;-45
2023/11/13 01:22:32;;;;;;;13.20;5.55;;;6.70;99.90;;;;;;5012889;28;20490;-39
2023/11/13 01:24:57;;;;;;;13.25;6.15;;;6.60;99.90;;;;;;5012705;28;20506;-40
2023/11/13 01:27:23;;;;;;;7.95;5.53;;;6.50;99.90;;;;;;5012628;28;20128;-38
2023/11/13 01:29:49;;;;;;;9.98;5.72;;;6.50;99.90;;;;;;5012666;28;20041;-40
2023/11/13 01:32:15;;;;;;;11.27;6.13;;;6.50;99.90;;;;;;5012568;28;20422;-39
2023/11/13 01:34:41;;;;;;;11.63;5.45;;;6.50;99.90;;;;;;5024037;28;20063;-42
2023/11/13 01:37:06;;;;;;;10.18;5.20;;;6.40;99.90;;;;;;5035651;28;20032;-38
2023/11/13 01:39:32;;;;;;;9.65;5.32;;;6.50;99.90;;;;;;5032094;28;20068;-39
2023/11/13 01:41:58;;;;;;;12.48;5.45;;;6.40;99.90;;;;;;5032473;28;20028;-38
2023/11/13 01:44:24;;;;;;;10.90;5.10;;;6.40;99.90;;;;;;5032247;28;20029;-38
2023/11/13 01:46:51;;;;;;;8.80;5.03;;;6.40;99.90;;;;;;5031662;28;20069;-40
2023/11/13 01:49:19;;;;;;;16.40;6.45;;;6.40;99.90;;;;;;5034757;28;20558;-38
2023/11/13 01:51:45;;;;;;;;;;;6.40;99.90;;;;;;5036159;28;20084;-37
2023/11/13 01:54:12;;;;;;;9.80;5.10;;;6.40;99.90;;;;;;5033934;28;20391;-40
2023/11/13 01:56:38;;;;;;;9.98;4.32;;;6.50;99.90;;;;;;5035732;28;20037;-39
2023/11/13 01:59:04;;;;;;;15.02;5.63;;;6.50;99.90;;;;;;5035826;28;20032;-39
2023/11/13 02:01:31;;;;;;;9.27;5.05;;;6.50;99.90;;;;;;5035596;28;20033;-54
2023/11/13 02:03:56;;;;;;;13.02;6.03;;;6.70;99.90;;;;;;5035115;28;20021;-53
2023/11/13 02:06:22;;;;;;;11.32;5.22;;;6.70;99.90;;;;;;5033912;28;20124;-54
2023/11/13 02:08:48;;;;;;;8.38;4.93;;;6.60;99.90;;;;;;5035235;28;20497;-59
2023/11/13 02:11:16;;;;;;;9.70;5.07;;;6.60;99.90;;;;;;5035399;28;20040;-53
2023/11/13 02:13:44;;;;;;;14.98;5.03;;;6.60;99.90;;;;;;5035342;28;20068;-55
2023/11/13 02:16:12;;;;;;;16.42;5.38;;;6.60;99.90;;;;;;5035055;28;20036;-54
2023/11/13 02:18:38;;;;;;;12.95;5.15;;;6.60;99.90;;;;;;5032029;28;20037;-54
2023/11/13 02:21:04;;;;;;;8.10;4.80;;;6.60;99.90;;;;;;5034866;28;20037;-54
2023/11/13 02:23:30;;;;;;;13.18;5.25;;;6.60;99.90;;;;;;5035198;28;20490;-53
2023/11/13 02:25:56;;;;;;;8.60;4.78;;;6.60;99.90;;;;;;5035121;28;20040;-51
2023/11/13 02:28:23;;;;;;;12.68;5.53;;;6.70;99.90;;;;;;5034612;28;20029;-52
2023/11/13 02:30:48;;;;;;;11.30;5.95;;;6.70;99.90;;;;;;5033486;28;20054;-48
2023/11/13 02:33:14;;;;;;;9.77;4.95;;;6.70;99.90;;;;;;5035310;28;20033;-38
2023/11/13 02:35:40;;;;;;;12.90;6.15;;;6.60;99.90;;;;;;5035008;28;20059;-38
2023/11/13 02:38:06;;;;;;;8.30;4.82;;;6.60;99.90;;;;;;5034060;28;20406;-39
2023/11/13 02:40:32;;;;;;;11.35;5.28;;;6.60;99.90;;;;;;5034815;28;20060;-39
2023/11/13 02:42:57;;;;;;;10.88;4.30;;;6.60;99.90;;;;;;5035062;28;20474;-54
2023/11/13 02:45:23;;;;;;;9.77;5.45;;;6.60;99.90;;;;;;5032995;28;20014;-54
2023/11/13 02:47:51;;;;;;;11.27;5.20;;;6.60;99.90;;;;;;5034736;28;20371;-54
2023/11/13 02:50:17;;;;;;;13.43;5.80;;;6.60;99.90;;;;;;5034409;28;20025;-54
2023/11/13 02:52:43;;;;;;;9.10;4.60;;;6.60;99.90;;;;;;5018053;28;20079;-54
2023/11/13 02:55:09;;;;;;;10.75;5.75;;;6.60;99.90;;;;;;5034487;28;20087;-54
2023/11/13 02:57:36;;;;;;;8.63;4.97;;;6.60;99.90;;;;;;5034499;28;20025;-54
2023/11/13 03:00:09;;;;;;;11.63;4.80;;;6.60;99.90;;;;;;5033896;28;20025;-53
2023/11/13 03:02:35;;;;;;;13.02;5.47;;;6.60;99.90;;;;;;5019535;28;20108;-53
2023/11/13 03:05:01;;;;;;;9.95;5.35;;;6.60;99.90;;;;;;5034575;28;20493;-53
2023/11/13 03:07:27;;;;;;;9.07;4.95;;;6.60;99.90;;;;;;5034318;28;20057;-56
2023/11/13 03:09:56;;;;;;;9.85;5.45;;;6.60;99.90;;;;;;5034555;28;20025;-53
2023/11/13 03:12:22;;;;;;;8.25;5.03;;;6.70;99.90;;;;;;5033974;28;20033;-54
2023/11/13 03:14:49;;;;;;;8.55;5.40;;;6.80;99.90;;;;;;5034242;28;20367;-54
2023/11/13 03:17:15;;;;;;;11.63;5.93;;;6.90;99.90;;;;;;5033871;28;20030;-54
2023/11/13 03:19:42;;;;;;;10.98;5.07;;;6.80;99.90;;;;;;5033918;28;20048;-53
2023/11/13 03:22:08;;;;;;;12.70;5.28;;;6.70;99.90;;;;;;5033820;28;20018;-54
2023/11/13 03:24:34;;;;;;;12.48;5.13;;;6.70;99.90;;;;;;5033992;28;20034;-54
2023/11/13 03:26:59;;;;;;;10.43;4.88;;;6.70;99.90;;;;;;5033949;28;20057;-54
2023/11/13 03:29:25;;;;;;;11.95;5.30;;;6.80;99.90;;;;;;5034220;28;20490;-53
2023/11/13 03:31:51;;;;;;;10.48;5.32;;;6.90;99.90;;;;;;5033578;28;20033;-54
2023/11/13 03:34:17;;;;;;;13.30;5.72;;;6.90;99.90;;;;;;5033859;28;20116;-54
2023/11/13 03:36:44;;;;;;;8.85;5.03;;;6.90;99.90;;;;;;5033474;28;20025;-52
2023/11/13 03:39:10;;;;;;;9.52;5.00;;;7.00;99.90;;;;;;5033485;28;20045;-55
2023/11/13 03:41:36;;;;;;;9.13;5.13;;;7.00;99.90;;;;;;5033437;28;20028;-51
2023/11/13 03:44:03;;;;;;;9.88;5.15;;;7.10;99.90;;;;;;5033884;28;20030;-52
2023/11/13 03:46:29;;;;;;;11.20;5.35;;;7.10;99.90;;;;;;5033058;28;20450;-57
2023/11/13 03:48:55;;;;;;;12.77;5.03;;;7.00;99.90;;;;;;5033619;28;20037;-54
2023/11/13 03:51:23;;;;;;;9.48;4.88;;;7.00;99.90;;;;;;5033113;28;20566;-48
2023/11/13 03:53:52;;;;;;;7.35;5.05;;;7.10;99.90;;;;;;5033263;28;20125;-56
2023/11/13 03:56:24;;;;;;;15.48;5.57;;;7.10;99.90;;;;;;5033324;28;20030;-54
2023/11/13 03:58:50;;;;;;;10.35;5.13;;;7.10;99.90;;;;;;5033349;28;20394;-54
2023/11/13 04:01:17;;;;;;;10.88;5.07;;;7.00;99.90;;;;;;5033054;28;20030;-53
2023/11/13 04:03:43;;;;;;;9.90;5.25;;;7.00;99.90;;;;;;5033421;28;20068;-54
2023/11/13 04:06:09;;;;;;;10.88;4.80;;;7.00;99.90;;;;;;5033552;28;20057;-55
2023/11/13 04:08:34;;;;;;;11.50;5.05;;;7.00;99.90;;;;;;5033265;28;20507;-53
2023/11/13 04:11:03;;;;;;;12.95;6.28;;;7.10;99.90;;;;;;5032396;28;20113;-52
2023/11/13 04:13:29;;;;;;;8.40;4.68;;;7.10;99.90;;;;;;5033149;28;20504;-54
2023/11/13 04:15:57;;;;;;;10.93;5.75;;;7.10;99.90;;;;;;5033162;28;20108;-54
2023/11/13 04:18:23;;;;;;;5.20;3.50;;;7.20;99.90;;;;;;5033061;28;20390;-54
2023/11/13 04:20:49;;;;;;;9.40;5.10;;;7.20;99.90;;;;;;5032739;28;20478;-39
2023/11/13 04:23:15;;;;;;;10.85;4.78;;;7.20;99.90;;;;;;5033111;28;20448;-40
2023/11/13 04:25:46;;;;;;;12.48;4.68;;;7.30;99.90;;;;;;5033020;28;20083;-40
2023/11/13 04:28:13;;;;;;;12.15;5.38;;;7.30;99.90;;;;;;5032649;28;20026;-40
2023/11/13 04:30:39;;;;;;;10.27;5.15;;;7.40;99.90;;;;;;5032663;28;20021;-41
2023/11/13 04:33:05;;;;;;;11.85;5.57;;;7.30;99.90;;;;;;5033159;28;20075;-40
2023/11/13 04:35:31;;;;;;;8.57;4.55;;;7.40;99.90;;;;;;5033079;28;20541;-39
2023/11/13 04:37:56;;;;;;;9.80;5.43;;;7.40;99.90;;;;;;5032608;28;20080;-40
2023/11/13 04:40:22;;;;;;;7.88;5.00;;;7.40;99.90;;;;;;5032458;28;20064;-38
2023/11/13 04:42:48;;;;;;;11.40;5.35;;;7.40;99.90;;;;;;5031571;28;20571;-41
2023/11/13 04:45:13;;;;;;;8.05;4.55;;;7.40;99.90;;;;;;5032414;28;20030;-38
2023/11/13 04:47:39;;;;;;;7.50;4.40;;;7.40;99.90;;;;;;5032641;28;20026;-39
2023/11/13 04:50:05;;;;;;;7.85;4.72;;;7.30;99.90;;;;;;5032735;28;20029;-38
2023/11/13 04:52:32;;;;;;;12.18;5.82;;;7.30;99.90;;;;;;5032924;28;20034;-41
2023/11/13 04:54:57;;;;;;;9.77;4.70;;;7.30;99.90;;;;;;5032703;28;20022;-39
2023/11/13 04:57:23;;;;;;;7.25;4.40;;;7.30;99.90;;;;;;5032715;28;20371;-38
2023/11/13 04:59:49;;;;;;;13.85;5.80;;;7.30;99.90;;;;;;5032655;28;20490;-38
2023/11/13 05:02:15;;;;;;;11.82;4.97;;;7.40;99.90;;;;;;5031115;28;20108;-44
2023/11/13 05:04:45;;;;;;;8.57;4.75;;;7.30;99.90;;;;;;5032233;28;20057;-42
2023/11/13 05:07:10;;;;;;;14.73;6.15;;;7.20;99.90;;;;;;5032558;28;20021;-41
2023/11/13 05:09:36;;;;;;;9.73;6.00;;;7.30;99.90;;;;;;5032415;28;20032;-39
2023/11/13 05:12:02;;;;;;;9.30;5.32;;;7.30;99.90;;;;;;5032537;28;20059;-39
2023/11/13 05:14:28;;;;;;;7.28;4.47;;;7.30;99.90;;;;;;5032396;28;20401;-38
2023/11/13 05:16:57;;;;;;;8.90;5.57;;;7.30;99.90;;;;;;5032220;28;20425;-40
2023/11/13 05:19:23;;;;;;;8.63;5.25;;;7.30;99.90;;;;;;5032226;28;20033;-54
2023/11/13 05:21:49;;;;;;;11.82;5.97;;;7.30;99.90;;;;;;5032693;28;20393;-53
2023/11/13 05:24:15;;;;;;;14.02;6.00;;;7.20;99.90;;;;;;5035103;28;20022;-54
2023/11/13 05:26:41;;;;;;;9.90;5.90;;;7.20;99.90;;;;;;5036160;28;20528;-55
2023/11/13 05:29:07;;;;;;;10.90;5.13;;;7.30;99.90;;;;;;5036174;28;20021;-52
2023/11/13 05:31:33;;;;;;;20.38;6.80;;;7.30;99.90;;;;;;5035698;28;20470;-50
2023/11/13 05:33:59;;;;;;;16.52;6.00;;;7.30;99.90;;;;;;5036123;28;20028;-51
2023/11/13 05:36:24;;;;;;;10.77;5.30;;;7.40;99.90;;;;;;5035892;28;20029;-52
2023/11/13 05:38:50;;;;;;;12.25;5.28;;;7.40;99.90;;;;;;5035361;28;20417;-54
2023/11/13 05:41:16;;;;;;;14.73;5.88;;;7.40;99.90;;;;;;5035590;28;20371;-53
2023/11/13 05:43:42;;;;;;;12.90;6.45;;;7.40;99.90;;;;;;5036017;28;20480;-53
2023/11/13 05:46:07;;;;;;;12.27;6.35;;;7.40;99.90;;;;;;5035459;28;20071;-54
2023/11/13 05:48:33;;;;;;;13.48;6.78;;;7.30;99.90;;;;;;5035412;28;20021;-53
2023/11/13 05:50:59;;;;;;;11.00;6.32;;;7.40;99.90;;;;;;5035798;28;20104;-54
2023/11/13 05:53:25;;;;;;;11.52;6.82;;;7.40;99.90;;;;;;5035270;28;20018;-54
2023/11/13 05:55:51;;;;;;;15.50;6.57;;;7.40;99.90;;;;;;5035919;28;20029;-54
2023/11/13 05:58:17;;;;;;;13.98;6.38;;;7.40;99.90;;;;;;5035611;28;20029;-54
2023/11/13 06:00:43;;;;;;;14.88;6.88;;;7.40;99.90;;;;;;5034706;28;20489;-52
2023/11/13 06:03:09;;;;;;;12.45;6.47;;;7.40;99.90;;;;;;5035635;28;20101;-55
2023/11/13 06:05:34;;;;;;;15.40;6.03;;;7.40;99.90;;;;;;5035562;28;20518;-56
2023/11/13 06:08:00;;;;;;;12.80;6.20;;;7.40;99.90;;;;;;5035512;28;20030;-55
2023/11/13 06:10:26;;;;;;;11.45;6.28;;;7.40;99.90;;;;;;5034509;28;20355;-55
2023/11/13 06:12:52;;;;;;;13.52;6.43;;;7.40;99.90;;;;;;5035117;28;20035;-55
2023/11/13 06:15:18;;;;;;;17.98;6.78;;;7.50;99.90;;;;;;5035028;28;20470;-55
2023/11/13 06:17:45;;;;;;;16.67;5.88;;;7.50;99.90;;;;;;5034823;28;20026;-54
2023/11/13 06:20:14;;;;;;;17.83;6.78;;;7.60;99.90;;;;;;5034981;28;20041;-51
2023/11/13 06:22:41;;;;;;;15.93;6.35;;;7.60;99.90;;;;;;5035212;28;20120;-54
2023/11/13 06:25:09;;;;;;;13.13;7.18;;;7.60;99.90;;;;;;5034691;28;20025;-54
2023/11/13 06:27:35;;;;;;;19.85;6.38;;;7.50;99.90;;;;;;5034505;28;20018;-51
2023/11/13 06:30:01;;;;;;;13.15;6.60;;;7.60;99.90;;;;;;5034478;28;20033;-54
2023/11/13 06:32:28;;;;;;;25.92;7.28;;;7.60;99.90;;;;;;5033885;28;20021;-55
2023/11/13 06:34:54;;;;;;;14.85;6.22;;;7.60;99.90;;;;;;5032907;28;20485;-54
2023/11/13 06:37:19;;;;;;;11.65;6.10;;;7.50;99.90;;;;;;5034691;28;20021;-55
2023/11/13 06:39:45;;;;;;;14.90;6.63;;;7.60;99.90;;;;;;5034635;28;20054;-57
2023/11/13 06:42:11;;;;;;;15.50;7.53;;;7.60;99.90;;;;;;5034598;28;20374;-55
2023/11/13 06:44:38;;;;;;;16.48;7.13;;;7.70;99.90;;;;;;5034677;28;20028;-54
2023/11/13 06:47:05;;;;;;;13.63;6.73;;;7.70;99.90;;;;;;5035083;28;20017;-54
2023/11/13 06:49:31;;;;;;;19.45;7.43;;;7.70;99.90;;;;;;5032339;28;20849;-55
2023/11/13 06:51:56;;;;;;;24.63;8.82;;;7.80;99.90;;;;;;5041603;28;20018;-52
2023/11/13 06:54:23;;;;;;;14.88;7.20;;;7.70;99.90;;;;;;5041377;28;20025;-55
2023/11/13 06:56:49;;;;;;;13.57;6.23;;;7.70;99.90;;;;;;5054477;28;20079;-54
2023/11/13 06:59:15;;;;;;;16.20;6.90;;;7.70;99.90;;;;;;5054166;28;20025;-52
2023/11/13 07:01:41;;;;;;;14.60;6.72;;;7.70;99.90;;;;;;5040435;28;20087;-54
2023/11/13 07:04:10;;;;;;;15.77;6.22;;;7.80;99.90;;;;;;5034592;28;20025;-54
2023/11/13 07:06:37;;;;;;;14.02;6.47;;;7.80;99.90;;;;;;5034283;28;20022;-54
2023/11/13 07:09:10;;;;;;;16.77;6.72;;;7.80;99.90;;;;;;5034288;28;20021;-50
2023/11/13 07:11:42;;;;;;;17.67;6.93;;;7.90;99.90;;;;;;5034315;28;20037;-53
2023/11/13 07:14:09;;;;;;;16.25;6.68;;;7.90;99.90;;;;;;5034523;28;20101;-54
2023/11/13 07:16:36;;;;;;;11.15;6.00;;;8.00;99.90;;;;;;5034427;28;20470;-54
2023/11/13 07:19:04;;;;;;;16.33;5.47;;;8.00;99.90;;;;;;5033880;28;20026;-53
2023/11/13 07:21:35;;;;;;;12.93;6.13;;;8.00;99.90;;;;;;5034091;28;20207;-55
2023/11/13 07:24:03;;;;;;;12.05;6.13;;;8.10;99.90;;;;;;5032513;28;20497;-51
2023/11/13 07:26:29;;;;;;;17.33;5.43;;;8.10;99.90;;;;;;5033990;28;20132;-54
2023/11/13 07:28:55;;;;;;;14.23;6.05;;;8.10;99.90;;;;;;5033961;28;20104;-55
2023/11/13 07:31:22;;;;;;;11.52;5.22;;;8.10;99.90;;;;;;5033897;28;20496;-55
2023/11/13 07:33:51;;;;;;;15.48;6.47;;;8.00;99.90;;;;;;5033789;28;20378;-53
2023/11/13 07:36:17;;;;;;;12.77;5.55;;;8.10;99.90;;;;;;5033671;28;20053;-54
2023/11/13 07:38:43;;;;;;;10.23;4.82;;;8.20;99.90;;;;;;5033508;28;20118;-55
2023/11/13 07:41:11;;;;;;;10.32;5.13;;;8.30;99.90;;;;;;5032835;28;20410;-54
2023/11/13 07:43:41;;;;;;;14.93;5.28;;;8.30;99.90;;;;;;5033688;28;20467;-53
2023/11/13 07:46:08;;;;;;;12.52;5.47;;;8.30;99.90;;;;;;5041806;28;20017;-55
2023/11/13 07:48:37;;;;;;;7.65;4.68;;;8.30;99.90;;;;;;5053737;28;20100;-52
2023/11/13 07:51:07;;;;;;;11.80;4.80;;;8.40;99.90;;;;;;5053312;28;20100;-53
2023/11/13 07:53:36;;;;;;;13.68;5.28;;;8.40;99.90;;;;;;5013574;28;20118;-53
2023/11/13 07:56:02;;;;;;;8.05;5.03;;;8.50;99.90;;;;;;5013635;28;20036;-53
2023/11/13 07:58:28;;;;;;;9.32;4.50;;;8.50;99.90;;;;;;5013834;28;20467;-53
2023/11/13 08:00:54;;;;;;;10.73;5.28;;;8.50;99.90;;;;;;5013610;28;20076;-51
2023/11/13 08:03:21;;;;;;;12.25;4.60;;;8.60;99.90;;;;;;5013681;28;20026;-52
2023/11/13 08:05:47;;;;;;;10.52;4.80;;;8.60;99.90;;;;;;5013502;28;20029;-51
2023/11/13 08:08:14;;;;;;;10.77;4.57;;;8.70;99.90;;;;;;5015303;28;20022;-54
2023/11/13 08:10:41;;;;;;;15.45;4.95;;;8.70;99.90;;;;;;5033223;28;20381;-52
2023/11/13 08:13:06;;;;;;;7.13;4.53;;;8.80;99.90;;;;;;5033130;28;20478;-53
2023/11/13 08:15:32;;;;;;;9.55;4.50;;;8.90;99.90;;;;;;5033146;28;20024;-51
2023/11/13 08:17:58;;;;;;;11.10;4.50;;;8.90;99.90;;;;;;5033330;28;20026;-50
2023/11/13 08:20:26;;;;;;;7.72;4.50;;;8.90;99.90;;;;;;5032953;28;20025;-50
2023/11/13 08:22:55;;;;;;;6.88;3.92;;;9.00;99.90;;;;;;5033038;28;20473;-53
2023/11/13 08:25:21;;;;;;;7.00;4.78;;;9.00;99.90;;;;;;5031420;28;20072;-52
2023/11/13 08:27:47;;;;;;;6.22;4.20;;;9.10;99.90;;;;;;5032949;28;20498;-50
2023/11/13 08:30:14;;;;;;;10.90;4.72;;;9.10;99.90;;;;;;5032915;28;20029;-53
2023/11/13 08:32:43;;;;;;;12.75;4.70;;;9.20;99.90;;;;;;5032967;28;20100;-53
2023/11/13 08:35:13;;;;;;;6.95;4.50;;;9.30;99.90;;;;;;5033189;28;20053;-53
2023/11/13 08:37:41;;;;;;;11.70;4.70;;;9.40;99.90;;;;;;5032807;28;20027;-50
2023/11/13 08:40:10;;;;;;;10.25;4.75;;;9.40;99.90;;;;;;5032559;28;20045;-54
2023/11/13 08:42:40;;;;;;;10.45;5.75;;;9.50;99.90;;;;;;5032883;28;20049;-54
2023/11/13 08:45:12;;;;;;;10.02;5.93;;;9.50;99.90;;;;;;5033962;28;20021;-69
2023/11/13 08:47:45;;;;;;;11.27;5.70;;;9.60;99.90;;;;;;5052980;28;20070;-39
2023/11/13 08:50:12;;;;;;;13.80;5.88;;;9.60;99.90;;;;;;5052627;28;20045;-40
2023/11/13 08:52:49;;;;;;;16.10;7.35;;;9.80;99.90;;;;;;5052610;28;20047;-43
2023/11/13 08:55:19;;;;;;;;;;;9.80;99.90;;;;;;5052931;28;20032;-40
2023/11/13 08:57:46;;;;;;;13.35;6.25;;;9.90;99.90;;;;;;5055071;28;20005;-42
2023/11/13 09:00:20;;;;;;;16.98;6.70;;;10.00;99.90;;;;;;5046595;28;20024;-39
2023/11/13 09:02:50;;;;;;;11.73;5.97;;;10.00;99.90;;;;;;5036770;28;20033;-40
2023/11/13 09:05:18;;;;;;;10.18;6.18;;;10.10;99.90;;;;;;5036713;28;20018;-45
2023/11/13 09:07:43;;;;;;;12.00;5.38;;;10.20;99.90;;;;;;5036983;28;20431;-40
2023/11/13 09:10:10;;;;;;;13.95;5.72;;;10.20;99.90;;;;;;5036685;28;20088;-39
2023/11/13 09:12:39;;;;;;;12.98;6.15;;;10.30;99.90;;;;;;5036748;28;20051;-40
2023/11/13 09:15:13;;;;;;;15.70;5.43;;;10.30;99.90;;;;;;5036483;28;20036;-41
2023/11/13 09:17:47;;;;;;;13.25;5.43;;;10.30;99.90;;;;;;5036340;28;20522;-41
2023/11/13 09:20:15;;;;;;;12.85;4.63;;;10.40;99.90;;;;;;5036526;28;20026;-43
2023/11/13 09:22:41;;;;;;;;;;;10.40;99.90;;;;;;5035558;28;20040;-40
2023/11/13 09:25:08;;;;;;;15.60;4.95;;;10.40;99.90;;;;;;5036323;28;19905;-40
2023/11/13 09:27:34;;;;;;;10.57;3.50;;;10.50;99.90;;;;;;5036264;28;20021;-39
2023/11/13 09:29:59;;;;;;;6.13;2.90;;;10.50;99.90;;;;;;5036496;28;20044;-40
2023/11/13 09:32:25;;;;;;;8.30;3.25;;;10.50;99.90;;;;;;5036424;28;20056;-44
2023/11/13 09:34:54;;;;;;;11.10;2.80;;;10.50;99.90;;;;;;5035949;28;20071;-41
2023/11/13 09:37:21;;;;;;;8.13;3.13;;;10.50;99.90;;;;;;5034823;28;20409;-43
2023/11/13 09:39:49;;;;;;;4.72;2.85;;;10.60;99.90;;;;;;5035890;28;20064;-41
2023/11/13 09:42:18;;;;;;;8.73;2.60;;;10.60;99.90;;;;;;5034702;28;20021;-40
2023/11/13 09:44:48;;;;;;;4.03;2.25;;;10.60;99.90;;;;;;5036187;28;20025;-41
2023/11/13 09:47:16;;;;;;;4.15;2.60;;;10.60;99.90;;;;;;5054544;28;20044;-41
2023/11/13 09:49:50;;;;;;;9.00;2.00;;;10.60;99.90;;;;;;5056065;28;20028;-42
2023/11/13 09:52:16;;;;;;;6.85;1.98;;;10.50;99.90;;;;;;5036909;28;20057;-40
2023/11/13 09:54:43;;;;;;;4.95;1.77;;;10.50;99.90;;;;;;5035756;28;20448;-44
2023/11/13 09:57:13;;;;;;;6.20;2.35;;;10.60;99.90;;;;;;5035763;28;20032;-39
2023/11/13 09:59:40;;;;;;;3.80;1.90;;;10.50;99.90;;;;;;5035654;28;20482;-36
2023/11/13 10:02:08;;;;;;;5.55;2.25;;;10.50;99.90;;;;;;5035860;28;20382;-39
2023/11/13 10:04:34;;;;;;;8.85;1.92;;;10.50;99.90;;;;;;5035886;28;20486;-39
2023/11/13 10:07:02;;;;;;;4.00;1.77;;;10.50;99.90;;;;;;5035485;28;20079;-41
2023/11/13 10:09:29;;;;;;;4.22;1.67;;;10.50;99.90;;;;;;5034098;28;20033;-43
2023/11/13 10:11:55;;;;;;;6.15;1.63;;;10.50;99.90;;;;;;5035787;28;20022;-39
2023/11/13 10:14:24;;;;;;;7.68;1.35;;;10.50;99.90;;;;;;5035440;28;20413;-40
2023/11/13 10:16:54;;;;;;;3.08;1.45;;;10.60;99.90;;;;;;5035300;28;20021;-41
2023/11/13 10:19:20;;;;;;;4.25;1.10;;;10.60;99.90;;;;;;5034068;28;20040;-39
2023/11/13 10:21:46;;;;;;;5.35;1.58;;;10.60;99.90;;;;;;5033914;28;20017;-39
2023/11/13 10:24:23;;;;;;;5.47;3.00;;;10.70;99.90;;;;;;5034992;28;20405;-39
2023/11/13 10:26:53;;;;;;;6.90;1.45;;;10.60;99.90;;;;;;5035463;28;20025;-44
2023/11/13 10:29:22;;;;;;;4.28;1.17;;;10.60;99.90;;;;;;5035387;28;20466;-40
2023/11/13 10:31:52;;;;;;;3.30;2.15;;;10.60;99.90;;;;;;5035346;28;20041;-38
2023/11/13 10:34:19;;;;;;;6.70;2.17;;;10.60;99.90;;;;;;5035080;28;20087;-40
2023/11/13 10:36:45;;;;;;;5.50;1.73;;;10.60;99.90;;;;;;5035332;28;20021;-40
2023/11/13 10:39:16;;;;;;;3.70;1.10;;;10.60;99.90;;;;;;5034833;28;20038;-38
2023/11/13 10:41:45;;;;;;;3.20;1.38;;;10.60;99.90;;;;;;5034833;28;20025;-39
2023/11/13 10:44:30;;;;;;;7.35;1.30;;;10.60;99.90;;;;;;5034854;28;20505;-38
2023/11/13 10:46:55;;;;;;;8.60;1.45;;;10.60;99.90;;;;;;5050661;28;20095;-37
2023/11/13 10:49:21;;;;;;;4.03;1.60;;;10.70;99.90;;;;;;5054694;28;20028;-37
2023/11/13 10:51:49;;;;;;;2.58;1.48;;;10.70;99.90;;;;;;5054652;28;20025;-38
2023/11/13 10:54:15;;;;;;;7.10;1.65;;;10.70;99.90;;;;;;5054768;28;20021;-38
2023/11/13 10:56:46;;;;;;;5.60;1.58;;;10.60;99.90;;;;;;5054509;28;20025;-38
2023/11/13 10:59:12;;;;;;;4.60;1.42;;;10.70;99.90;;;;;;5044094;28;20025;-38
2023/11/13 11:01:41;;;;;;;4.10;1.58;;;10.60;99.90;;;;;;5034423;28;20048;-39
2023/11/13 11:04:10;;;;;;;2.67;1.40;;;10.60;99.90;;;;;;5034604;28;20028;-38
2023/11/13 11:06:39;;;;;;;4.18;1.50;;;10.70;99.90;;;;;;5034689;28;20394;-43
2023/11/13 11:09:07;;;;;;;4.57;1.20;;;10.70;99.90;;;;;;5034400;28;20478;-38
2023/11/13 11:11:36;;;;;;;6.93;1.65;;;10.70;99.90;;;;;;5034365;28;20021;-39
2023/11/13 11:14:15;;;;;;;3.92;1.30;;;10.70;99.90;;;;;;5034288;28;20036;-41
2023/11/13 11:16:44;;;;;;;3.72;1.70;;;10.70;99.90;;;;;;5034170;28;20030;-53
2023/11/13 11:19:34;;;;;;;4.32;1.20;;;10.70;99.90;;;;;;5034384;28;20029;-55
2023/11/13 11:22:31;;;;;;;3.08;1.58;;;10.70;99.90;;;;;;5034195;28;20033;-38
2023/11/13 11:25:00;;;;;;;2.53;1.87;;;10.70;99.90;;;;;;5034176;28;20477;-39
2023/11/13 11:27:43;;;;;;;7.68;2.30;;;10.80;99.90;;;;;;5034267;28;20755;-40
2023/11/13 11:30:17;;;;;;;6.78;2.05;;;10.90;99.90;;;;;;5034193;28;20029;-41
2023/11/13 11:32:54;;;;;;;4.35;2.22;;;11.00;99.90;;;;;;5033820;28;20029;-43
2023/11/13 11:35:24;;;;;;;2.70;2.10;;;11.00;99.90;;;;;;5033744;28;20367;-41
2023/11/13 11:38:17;;;;;;;5.85;2.08;;;11.00;99.90;;;;;;5033847;28;20044;-49
2023/11/13 11:40:44;;;;;;;6.40;2.60;;;11.00;99.90;;;;;;5033616;28;20414;-39
2023/11/13 11:43:14;;;;;;;9.57;3.55;;;11.10;99.90;;;;;;5033733;28;20080;-41
2023/11/13 11:45:51;;;;;;;3.60;2.58;;;11.20;99.90;;;;;;5039225;28;20075;-43
2023/11/13 11:48:18;;;;;;;4.82;2.45;;;11.30;99.90;;;;;;5053601;28;20025;-39
2023/11/13 11:50:45;;;;;;;6.77;3.27;;;11.30;99.90;;;;;;5039260;28;20072;-41
2023/11/13 11:53:19;;;;;;;5.90;3.47;;;11.30;99.90;;;;;;5033449;28;20018;-42
2023/11/13 11:55:45;;;;;;;5.80;3.72;;;11.40;99.90;;;;;;5033500;28;20024;-54
2023/11/13 11:58:15;;;;;;;8.45;3.65;;;11.50;99.90;;;;;;5033759;28;20424;-54
2023/11/13 12:00:42;;;;;;;7.57;3.35;;;11.50;99.90;;;;;;5033382;28;20029;-55
2023/11/13 12:03:08;;;;;;;7.28;4.15;;;11.60;99.90;;;;;;5033348;28;20026;-55
2023/11/13 12:05:34;;;;;;;8.25;3.95;;;11.60;99.90;;;;;;5033629;28;20474;-52
2023/11/13 12:08:00;;;;;;;13.80;4.25;;;11.70;99.90;;;;;;5033144;28;20033;-55
2023/11/13 12:10:25;;;;;;;9.57;4.38;;;11.80;99.90;;;;;;5033504;28;20466;-54
2023/11/13 12:12:52;;;;;;;12.30;4.53;;;11.80;99.90;;;;;;5033217;28;20021;-54
2023/11/13 12:15:18;;;;;;;15.35;4.15;;;11.90;99.90;;;;;;5032037;28;20478;-53
2023/11/13 12:17:45;;;;;;;15.30;3.88;;;12.00;99.90;;;;;;5033446;28;20018;-54
2023/11/13 12:20:12;;;;;;;16.73;4.75;;;12.10;99.90;;;;;;5033285;28;20033;-53
2023/11/13 12:22:39;;;;;;;15.40;4.17;;;12.20;99.90;;;;;;5033110;28;20410;-56
2023/11/13 12:25:10;;;;;;;12.38;3.45;;;12.30;99.90;;;;;;5033129;28;20470;-50
2023/11/13 12:27:40;;;;;;;14.07;3.10;;;12.40;99.90;;;;;;5033323;28;20466;-52
2023/11/13 12:30:16;;;;;;;13.23;3.80;;;12.50;99.90;;;;;;5032935;28;20478;-54
2023/11/13 12:32:51;;;;;;;10.00;3.60;;;12.60;99.90;;;;;;5032724;28;20026;-52
2023/11/13 12:35:19;;;;;;;18.95;3.75;;;12.70;99.90;;;;;;5032972;28;20104;-53
2023/11/13 12:37:46;;;;;;;13.90;3.63;;;12.80;99.90;;;;;;5032910;28;20033;-52
2023/11/13 12:40:13;;;;;;;12.90;3.45;;;13.00;99.90;;;;;;5032465;28;20037;-50
2023/11/13 12:42:39;;;;;;;9.70;3.53;;;13.10;99.90;;;;;;5033028;28;20466;-52
2023/11/13 12:45:18;;;;;;;12.60;3.25;;;13.10;99.90;;;;;;5033723;28;20083;-48
2023/11/13 12:47:52;;;;;;;11.48;3.30;;;13.20;99.90;;;;;;5052732;28;20490;-50
2023/11/13 12:50:21;;;;;;;5.15;3.05;;;13.20;99.90;;;;;;5052702;28;20048;-50